sensor_id;sensor_type;location;lat;lon;timestamp;P1;durP1;ratioP1;P2;durP2;ratioP2
14268;SDS011;7218;51.480;7.006;2023-08-21T00:02:02;7.57;;;3.05;;
14268;SDS011;7218;51.480;7.006;2023-08-21T00:04:29;5.63;;;2.70;;
14268;SDS011;7218;51.480;7.006;2023-08-21T00:06:56;5.72;;;2.70;;
14268;SDS011;7218;51.480;7.006;2023-08-21T00:09:23;6.60;;;2.95;;
14268;SDS011;7218;51.480;7.006;2023-08-21T00:11:50;6.53;;;2.60;;
14268;SDS011;7218;51.480;7.006;2023-08-21T00:14:17;7.32;;;2.50;;
14268;SDS011;7218;51.480;7.006;2023-08-21T00:16:43;4.40;;;2.30;;
14268;SDS011;7218;51.480;7.006;2023-08-21T00:19:10;5.72;;;2.90;;
14268;SDS011;7218;51.480;7.006;2023-08-21T00:21:36;5.85;;;2.40;;
14268;SDS011;7218;51.480;7.006;2023-08-21T00:24:03;5.63;;;2.40;;
14268;SDS011;7218;51.480;7.006;2023-08-21T00:26:29;2.40;;;1.90;;
14268;SDS011;7218;51.480;7.006;2023-08-21T00:28:57;5.28;;;2.22;;
14268;SDS011;7218;51.480;7.006;2023-08-21T00:31:24;4.32;;;2.30;;
14268;SDS011;7218;51.480;7.006;2023-08-21T00:33:50;4.47;;;2.40;;
14268;SDS011;7218;51.480;7.006;2023-08-21T00:36:17;5.18;;;2.33;;
14268;SDS011;7218;51.480;7.006;2023-08-21T00:38:44;6.60;;;3.00;;
14268;SDS011;7218;51.480;7.006;2023-08-21T00:41:11;6.25;;;2.83;;
14268;SDS011;7218;51.480;7.006;2023-08-21T00:43:38;4.78;;;2.70;;
14268;SDS011;7218;51.480;7.006;2023-08-21T00:46:06;6.70;;;2.97;;
14268;SDS011;7218;51.480;7.006;2023-08-21T00:48:32;7.97;;;2.60;;
14268;SDS011;7218;51.480;7.006;2023-08-21T00:51:00;3.30;;;2.20;;
14268;SDS011;7218;51.480;7.006;2023-08-21T00:53:26;4.10;;;2.50;;
14268;SDS011;7218;51.480;7.006;2023-08-21T00:55:53;5.03;;;2.50;;
14268;SDS011;7218;51.480;7.006;2023-08-21T00:58:19;5.95;;;2.10;;
14268;SDS011;7218;51.480;7.006;2023-08-21T01:00:46;5.35;;;2.38;;
14268;SDS011;7218;51.480;7.006;2023-08-21T01:03:16;5.05;;;2.42;;
14268;SDS011;7218;51.480;7.006;2023-08-21T01:05:43;4.32;;;2.50;;
14268;SDS011;7218;51.480;7.006;2023-08-21T01:08:10;4.50;;;2.17;;
14268;SDS011;7218;51.480;7.006;2023-08-21T01:10:43;4.63;;;2.42;;
14268;SDS011;7218;51.480;7.006;2023-08-21T01:13:19;7.97;;;2.42;;
14268;SDS011;7218;51.480;7.006;2023-08-21T01:15:53;5.65;;;2.40;;
14268;SDS011;7218;51.480;7.006;2023-08-21T01:18:23;5.25;;;2.55;;
14268;SDS011;7218;51.480;7.006;2023-08-21T01:20:51;8.43;;;2.85;;
14268;SDS011;7218;51.480;7.006;2023-08-21T01:23:30;5.07;;;2.83;;
14268;SDS011;7218;51.480;7.006;2023-08-21T01:25:57;6.05;;;2.97;;
14268;SDS011;7218;51.480;7.006;2023-08-21T01:28:24;5.57;;;2.42;;
14268;SDS011;7218;51.480;7.006;2023-08-21T01:30:51;6.78;;;2.70;;
14268;SDS011;7218;51.480;7.006;2023-08-21T01:33:24;6.57;;;2.42;;
14268;SDS011;7218;51.480;7.006;2023-08-21T01:35:55;5.50;;;2.42;;
14268;SDS011;7218;51.480;7.006;2023-08-21T01:38:23;7.70;;;2.85;;
14268;SDS011;7218;51.480;7.006;2023-08-21T01:40:52;8.80;;;2.20;;
14268;SDS011;7218;51.480;7.006;2023-08-21T01:43:19;7.78;;;2.60;;
14268;SDS011;7218;51.480;7.006;2023-08-21T01:45:46;4.88;;;2.88;;
14268;SDS011;7218;51.480;7.006;2023-08-21T01:48:12;4.55;;;2.28;;
14268;SDS011;7218;51.480;7.006;2023-08-21T01:50:39;7.90;;;2.80;;
14268;SDS011;7218;51.480;7.006;2023-08-21T01:53:05;6.57;;;2.38;;
14268;SDS011;7218;51.480;7.006;2023-08-21T01:55:32;4.15;;;2.65;;
14268;SDS011;7218;51.480;7.006;2023-08-21T01:57:59;5.15;;;2.30;;
14268;SDS011;7218;51.480;7.006;2023-08-21T02:00:26;5.82;;;2.60;;
14268;SDS011;7218;51.480;7.006;2023-08-21T02:02:52;6.22;;;2.50;;
14268;SDS011;7218;51.480;7.006;2023-08-21T02:05:19;4.50;;;2.60;;
14268;SDS011;7218;51.480;7.006;2023-08-21T02:07:45;5.43;;;2.72;;
14268;SDS011;7218;51.480;7.006;2023-08-21T02:10:12;4.65;;;2.42;;
14268;SDS011;7218;51.480;7.006;2023-08-21T02:12:38;7.30;;;2.30;;
14268;SDS011;7218;51.480;7.006;2023-08-21T02:15:07;4.10;;;2.10;;
14268;SDS011;7218;51.480;7.006;2023-08-21T02:17:35;5.43;;;2.50;;
14268;SDS011;7218;51.480;7.006;2023-08-21T02:20:01;5.15;;;2.50;;
14268;SDS011;7218;51.480;7.006;2023-08-21T02:22:28;6.10;;;2.30;;
14268;SDS011;7218;51.480;7.006;2023-08-21T02:24:54;4.95;;;2.20;;
14268;SDS011;7218;51.480;7.006;2023-08-21T02:27:21;5.65;;;2.58;;
14268;SDS011;7218;51.480;7.006;2023-08-21T02:29:47;5.03;;;2.63;;
14268;SDS011;7218;51.480;7.006;2023-08-21T02:32:15;4.10;;;2.50;;
14268;SDS011;7218;51.480;7.006;2023-08-21T02:34:42;6.65;;;2.38;;
14268;SDS011;7218;51.480;7.006;2023-08-21T02:37:08;4.40;;;2.28;;
14268;SDS011;7218;51.480;7.006;2023-08-21T02:39:34;6.45;;;2.35;;
14268;SDS011;7218;51.480;7.006;2023-08-21T02:42:01;9.20;;;2.70;;
14268;SDS011;7218;51.480;7.006;2023-08-21T02:44:27;4.38;;;2.50;;
14268;SDS011;7218;51.480;7.006;2023-08-21T02:46:54;6.18;;;2.45;;
14268;SDS011;7218;51.480;7.006;2023-08-21T02:49:22;5.90;;;2.65;;
14268;SDS011;7218;51.480;7.006;2023-08-21T02:51:48;5.80;;;2.88;;
14268;SDS011;7218;51.480;7.006;2023-08-21T02:54:15;6.22;;;2.50;;
14268;SDS011;7218;51.480;7.006;2023-08-21T02:56:41;6.15;;;2.90;;
14268;SDS011;7218;51.480;7.006;2023-08-21T02:59:07;3.88;;;2.42;;
14268;SDS011;7218;51.480;7.006;2023-08-21T03:01:34;8.73;;;2.70;;
14268;SDS011;7218;51.480;7.006;2023-08-21T03:04:01;3.42;;;2.22;;
14268;SDS011;7218;51.480;7.006;2023-08-21T03:06:29;5.55;;;2.45;;
14268;SDS011;7218;51.480;7.006;2023-08-21T03:08:55;6.05;;;2.60;;
14268;SDS011;7218;51.480;7.006;2023-08-21T03:11:22;8.77;;;2.67;;
14268;SDS011;7218;51.480;7.006;2023-08-21T03:13:48;7.03;;;2.50;;
14268;SDS011;7218;51.480;7.006;2023-08-21T03:16:14;7.57;;;2.50;;
14268;SDS011;7218;51.480;7.006;2023-08-21T03:18:53;5.60;;;2.85;;
14268;SDS011;7218;51.480;7.006;2023-08-21T03:21:21;7.60;;;2.90;;
14268;SDS011;7218;51.480;7.006;2023-08-21T03:23:50;5.90;;;2.60;;
14268;SDS011;7218;51.480;7.006;2023-08-21T03:26:17;4.57;;;2.33;;
14268;SDS011;7218;51.480;7.006;2023-08-21T03:28:43;5.70;;;2.47;;
14268;SDS011;7218;51.480;7.006;2023-08-21T03:31:10;5.53;;;2.50;;
14268;SDS011;7218;51.480;7.006;2023-08-21T03:33:36;9.45;;;2.75;;
14268;SDS011;7218;51.480;7.006;2023-08-21T03:36:03;5.80;;;2.90;;
14268;SDS011;7218;51.480;7.006;2023-08-21T03:38:30;6.00;;;2.95;;
14268;SDS011;7218;51.480;7.006;2023-08-21T03:40:57;6.75;;;2.70;;
14268;SDS011;7218;51.480;7.006;2023-08-21T03:43:24;6.70;;;2.95;;
14268;SDS011;7218;51.480;7.006;2023-08-21T03:45:51;7.35;;;2.80;;
14268;SDS011;7218;51.480;7.006;2023-08-21T03:48:17;4.80;;;2.90;;
14268;SDS011;7218;51.480;7.006;2023-08-21T03:50:44;6.72;;;3.00;;
14268;SDS011;7218;51.480;7.006;2023-08-21T03:53:10;6.75;;;2.80;;
14268;SDS011;7218;51.480;7.006;2023-08-21T03:55:37;4.85;;;2.33;;
14268;SDS011;7218;51.480;7.006;2023-08-21T03:58:04;9.13;;;2.50;;
14268;SDS011;7218;51.480;7.006;2023-08-21T04:00:31;5.15;;;2.58;;
14268;SDS011;7218;51.480;7.006;2023-08-21T04:02:57;5.85;;;2.60;;
14268;SDS011;7218;51.480;7.006;2023-08-21T04:05:24;7.93;;;2.72;;
14268;SDS011;7218;51.480;7.006;2023-08-21T04:07:50;3.45;;;2.30;;
14268;SDS011;7218;51.480;7.006;2023-08-21T04:10:17;4.80;;;2.47;;
14268;SDS011;7218;51.480;7.006;2023-08-21T04:12:43;4.38;;;2.40;;
14268;SDS011;7218;51.480;7.006;2023-08-21T04:15:11;5.97;;;2.90;;
14268;SDS011;7218;51.480;7.006;2023-08-21T04:17:38;4.63;;;2.60;;
14268;SDS011;7218;51.480;7.006;2023-08-21T04:20:05;8.05;;;2.70;;
14268;SDS011;7218;51.480;7.006;2023-08-21T04:22:32;4.00;;;2.58;;
14268;SDS011;7218;51.480;7.006;2023-08-21T04:24:59;5.55;;;2.63;;
14268;SDS011;7218;51.480;7.006;2023-08-21T04:27:26;4.90;;;2.70;;
14268;SDS011;7218;51.480;7.006;2023-08-21T04:29:53;5.65;;;2.40;;
14268;SDS011;7218;51.480;7.006;2023-08-21T04:32:21;8.23;;;2.92;;
14268;SDS011;7218;51.480;7.006;2023-08-21T04:34:48;4.63;;;2.42;;
14268;SDS011;7218;51.480;7.006;2023-08-21T04:37:14;7.38;;;2.90;;
14268;SDS011;7218;51.480;7.006;2023-08-21T04:39:41;5.90;;;2.63;;
14268;SDS011;7218;51.480;7.006;2023-08-21T04:42:07;5.70;;;2.38;;
14268;SDS011;7218;51.480;7.006;2023-08-21T04:44:33;6.03;;;2.40;;
14268;SDS011;7218;51.480;7.006;2023-08-21T04:47:17;8.00;;;2.53;;
14268;SDS011;7218;51.480;7.006;2023-08-21T04:49:46;5.32;;;2.50;;
14268;SDS011;7218;51.480;7.006;2023-08-21T04:52:13;6.07;;;2.67;;
14268;SDS011;7218;51.480;7.006;2023-08-21T04:54:40;10.13;;;2.78;;
14268;SDS011;7218;51.480;7.006;2023-08-21T04:57:06;4.20;;;2.47;;
14268;SDS011;7218;51.480;7.006;2023-08-21T04:59:33;7.28;;;2.50;;
14268;SDS011;7218;51.480;7.006;2023-08-21T05:02:00;4.82;;;2.17;;
14268;SDS011;7218;51.480;7.006;2023-08-21T05:04:27;5.53;;;2.50;;
14268;SDS011;7218;51.480;7.006;2023-08-21T05:06:55;4.43;;;2.30;;
14268;SDS011;7218;51.480;7.006;2023-08-21T05:09:21;4.05;;;2.40;;
14268;SDS011;7218;51.480;7.006;2023-08-21T05:11:48;5.38;;;2.60;;
14268;SDS011;7218;51.480;7.006;2023-08-21T05:14:14;6.75;;;2.63;;
14268;SDS011;7218;51.480;7.006;2023-08-21T05:16:41;8.40;;;2.85;;
14268;SDS011;7218;51.480;7.006;2023-08-21T05:19:07;5.63;;;3.15;;
14268;SDS011;7218;51.480;7.006;2023-08-21T05:21:33;5.57;;;2.92;;
14268;SDS011;7218;51.480;7.006;2023-08-21T05:24:01;5.90;;;2.50;;
14268;SDS011;7218;51.480;7.006;2023-08-21T05:26:28;5.22;;;3.05;;
14268;SDS011;7218;51.480;7.006;2023-08-21T05:28:54;7.38;;;3.00;;
14268;SDS011;7218;51.480;7.006;2023-08-21T05:31:21;7.28;;;2.78;;
14268;SDS011;7218;51.480;7.006;2023-08-21T05:33:47;5.13;;;2.97;;
14268;SDS011;7218;51.480;7.006;2023-08-21T05:36:14;4.65;;;2.80;;
14268;SDS011;7218;51.480;7.006;2023-08-21T05:38:41;8.25;;;3.17;;
14268;SDS011;7218;51.480;7.006;2023-08-21T05:41:09;9.90;;;3.17;;
14268;SDS011;7218;51.480;7.006;2023-08-21T05:43:35;4.72;;;2.88;;
14268;SDS011;7218;51.480;7.006;2023-08-21T05:46:02;5.75;;;2.90;;
14268;SDS011;7218;51.480;7.006;2023-08-21T05:48:31;8.43;;;3.25;;
14268;SDS011;7218;51.480;7.006;2023-08-21T05:50:58;6.85;;;2.90;;
14268;SDS011;7218;51.480;7.006;2023-08-21T05:53:24;3.67;;;2.75;;
14268;SDS011;7218;51.480;7.006;2023-08-21T05:55:51;8.20;;;3.40;;
14268;SDS011;7218;51.480;7.006;2023-08-21T05:58:19;7.85;;;3.03;;
14268;SDS011;7218;51.480;7.006;2023-08-21T06:00:46;4.50;;;3.05;;
14268;SDS011;7218;51.480;7.006;2023-08-21T06:03:13;5.75;;;3.28;;
14268;SDS011;7218;51.480;7.006;2023-08-21T06:05:40;7.70;;;3.00;;
14268;SDS011;7218;51.480;7.006;2023-08-21T06:08:06;7.72;;;3.50;;
14268;SDS011;7218;51.480;7.006;2023-08-21T06:10:33;5.53;;;3.45;;
14268;SDS011;7218;51.480;7.006;2023-08-21T06:13:00;7.25;;;3.22;;
14268;SDS011;7218;51.480;7.006;2023-08-21T06:15:28;6.75;;;3.58;;
14268;SDS011;7218;51.480;7.006;2023-08-21T06:17:54;8.27;;;3.30;;
14268;SDS011;7218;51.480;7.006;2023-08-21T06:20:21;4.72;;;3.10;;
14268;SDS011;7218;51.480;7.006;2023-08-21T06:22:47;6.30;;;3.28;;
14268;SDS011;7218;51.480;7.006;2023-08-21T06:25:14;5.88;;;3.55;;
14268;SDS011;7218;51.480;7.006;2023-08-21T06:27:40;6.78;;;3.10;;
14268;SDS011;7218;51.480;7.006;2023-08-21T06:30:07;8.95;;;3.65;;
14268;SDS011;7218;51.480;7.006;2023-08-21T06:32:35;6.10;;;3.53;;
14268;SDS011;7218;51.480;7.006;2023-08-21T06:35:02;10.07;;;3.70;;
14268;SDS011;7218;51.480;7.006;2023-08-21T06:37:29;7.25;;;3.35;;
14268;SDS011;7218;51.480;7.006;2023-08-21T06:39:55;6.43;;;3.70;;
14268;SDS011;7218;51.480;7.006;2023-08-21T06:42:21;8.23;;;3.30;;
14268;SDS011;7218;51.480;7.006;2023-08-21T06:44:48;6.90;;;3.20;;
14268;SDS011;7218;51.480;7.006;2023-08-21T06:47:15;7.47;;;3.10;;
14268;SDS011;7218;51.480;7.006;2023-08-21T06:49:43;6.78;;;3.20;;
14268;SDS011;7218;51.480;7.006;2023-08-21T06:52:09;7.43;;;2.92;;
14268;SDS011;7218;51.480;7.006;2023-08-21T06:54:36;8.80;;;3.40;;
14268;SDS011;7218;51.480;7.006;2023-08-21T06:57:02;8.55;;;3.10;;
14268;SDS011;7218;51.480;7.006;2023-08-21T06:59:29;6.47;;;2.88;;
14268;SDS011;7218;51.480;7.006;2023-08-21T07:01:58;6.68;;;2.70;;
14268;SDS011;7218;51.480;7.006;2023-08-21T07:04:25;7.22;;;2.53;;
14268;SDS011;7218;51.480;7.006;2023-08-21T07:06:53;8.38;;;2.60;;
14268;SDS011;7218;51.480;7.006;2023-08-21T07:09:20;5.90;;;2.28;;
14268;SDS011;7218;51.480;7.006;2023-08-21T07:11:46;6.00;;;2.30;;
14268;SDS011;7218;51.480;7.006;2023-08-21T07:14:13;6.55;;;2.67;;
14268;SDS011;7218;51.480;7.006;2023-08-21T07:16:39;5.47;;;2.40;;
14268;SDS011;7218;51.480;7.006;2023-08-21T07:19:06;9.05;;;2.40;;
14268;SDS011;7218;51.480;7.006;2023-08-21T07:21:32;5.97;;;2.00;;
14268;SDS011;7218;51.480;7.006;2023-08-21T07:24:02;5.15;;;2.20;;
14268;SDS011;7218;51.480;7.006;2023-08-21T07:26:29;6.05;;;2.20;;
14268;SDS011;7218;51.480;7.006;2023-08-21T07:28:56;4.55;;;2.15;;
14268;SDS011;7218;51.480;7.006;2023-08-21T07:31:22;7.15;;;2.15;;
14268;SDS011;7218;51.480;7.006;2023-08-21T07:33:49;4.30;;;2.10;;
14268;SDS011;7218;51.480;7.006;2023-08-21T07:36:15;6.90;;;2.30;;
14268;SDS011;7218;51.480;7.006;2023-08-21T07:38:43;5.78;;;2.10;;
14268;SDS011;7218;51.480;7.006;2023-08-21T07:41:11;3.92;;;2.13;;
14268;SDS011;7218;51.480;7.006;2023-08-21T07:43:39;5.88;;;2.10;;
14268;SDS011;7218;51.480;7.006;2023-08-21T07:46:06;4.45;;;1.90;;
14268;SDS011;7218;51.480;7.006;2023-08-21T07:48:34;5.68;;;2.30;;
14268;SDS011;7218;51.480;7.006;2023-08-21T07:51:01;3.58;;;1.83;;
14268;SDS011;7218;51.480;7.006;2023-08-21T07:53:28;6.60;;;2.13;;
14268;SDS011;7218;51.480;7.006;2023-08-21T07:55:56;9.45;;;2.30;;
14268;SDS011;7218;51.480;7.006;2023-08-21T07:58:24;7.57;;;2.50;;
14268;SDS011;7218;51.480;7.006;2023-08-21T08:00:51;12.02;;;2.67;;
14268;SDS011;7218;51.480;7.006;2023-08-21T08:03:17;5.90;;;2.33;;
14268;SDS011;7218;51.480;7.006;2023-08-21T08:05:44;12.20;;;2.75;;
14268;SDS011;7218;51.480;7.006;2023-08-21T08:08:10;4.75;;;2.50;;
14268;SDS011;7218;51.480;7.006;2023-08-21T08:10:37;7.68;;;2.80;;
14268;SDS011;7218;51.480;7.006;2023-08-21T08:13:05;6.07;;;2.53;;
14268;SDS011;7218;51.480;7.006;2023-08-21T08:15:33;6.30;;;2.30;;
14268;SDS011;7218;51.480;7.006;2023-08-21T08:18:00;6.30;;;2.60;;
14268;SDS011;7218;51.480;7.006;2023-08-21T08:20:27;4.93;;;2.13;;
14268;SDS011;7218;51.480;7.006;2023-08-21T08:22:53;5.63;;;2.10;;
14268;SDS011;7218;51.480;7.006;2023-08-21T08:25:20;6.82;;;2.35;;
14268;SDS011;7218;51.480;7.006;2023-08-21T08:27:46;11.30;;;3.28;;
14268;SDS011;7218;51.480;7.006;2023-08-21T08:30:13;7.65;;;2.72;;
14268;SDS011;7218;51.480;7.006;2023-08-21T08:32:41;6.45;;;2.45;;
14268;SDS011;7218;51.480;7.006;2023-08-21T08:35:10;7.25;;;2.50;;
14268;SDS011;7218;51.480;7.006;2023-08-21T08:37:36;7.30;;;2.50;;
14268;SDS011;7218;51.480;7.006;2023-08-21T08:40:03;9.45;;;2.50;;
14268;SDS011;7218;51.480;7.006;2023-08-21T08:42:30;6.10;;;2.38;;
14268;SDS011;7218;51.480;7.006;2023-08-21T08:44:57;5.35;;;2.50;;
14268;SDS011;7218;51.480;7.006;2023-08-21T08:47:28;8.52;;;2.72;;
14268;SDS011;7218;51.480;7.006;2023-08-21T08:49:58;5.80;;;2.33;;
14268;SDS011;7218;51.480;7.006;2023-08-21T08:52:25;10.07;;;2.30;;
14268;SDS011;7218;51.480;7.006;2023-08-21T08:54:52;7.10;;;2.00;;
14268;SDS011;7218;51.480;7.006;2023-08-21T08:57:21;7.97;;;2.20;;
14268;SDS011;7218;51.480;7.006;2023-08-21T08:59:48;4.32;;;2.13;;
14268;SDS011;7218;51.480;7.006;2023-08-21T09:02:15;4.20;;;2.20;;
14268;SDS011;7218;51.480;7.006;2023-08-21T09:04:42;5.93;;;2.22;;
14268;SDS011;7218;51.480;7.006;2023-08-21T09:07:10;6.57;;;2.20;;
14268;SDS011;7218;51.480;7.006;2023-08-21T09:09:38;3.92;;;2.10;;
14268;SDS011;7218;51.480;7.006;2023-08-21T09:12:09;4.63;;;2.28;;
14268;SDS011;7218;51.480;7.006;2023-08-21T09:14:36;3.63;;;2.05;;
14268;SDS011;7218;51.480;7.006;2023-08-21T09:17:03;3.38;;;1.90;;
14268;SDS011;7218;51.480;7.006;2023-08-21T09:19:30;4.13;;;2.08;;
14268;SDS011;7218;51.480;7.006;2023-08-21T09:21:56;3.58;;;2.00;;
14268;SDS011;7218;51.480;7.006;2023-08-21T09:24:24;4.38;;;2.00;;
14268;SDS011;7218;51.480;7.006;2023-08-21T09:26:51;5.07;;;2.05;;
14268;SDS011;7218;51.480;7.006;2023-08-21T09:29:18;6.05;;;1.95;;
14268;SDS011;7218;51.480;7.006;2023-08-21T09:31:45;5.22;;;2.20;;
14268;SDS011;7218;51.480;7.006;2023-08-21T09:34:12;8.50;;;2.30;;
14268;SDS011;7218;51.480;7.006;2023-08-21T09:36:38;4.78;;;2.20;;
14268;SDS011;7218;51.480;7.006;2023-08-21T09:39:05;2.97;;;2.28;;
14268;SDS011;7218;51.480;7.006;2023-08-21T09:41:34;6.03;;;2.47;;
14268;SDS011;7218;51.480;7.006;2023-08-21T09:44:00;3.75;;;1.80;;
14268;SDS011;7218;51.480;7.006;2023-08-21T09:46:29;5.03;;;2.85;;
14268;SDS011;7218;51.480;7.006;2023-08-21T09:48:55;4.10;;;2.10;;
14268;SDS011;7218;51.480;7.006;2023-08-21T09:51:22;7.13;;;2.13;;
14268;SDS011;7218;51.480;7.006;2023-08-21T09:53:48;5.90;;;2.05;;
14268;SDS011;7218;51.480;7.006;2023-08-21T09:56:17;6.13;;;2.20;;
14268;SDS011;7218;51.480;7.006;2023-08-21T09:58:45;3.22;;;1.95;;
14268;SDS011;7218;51.480;7.006;2023-08-21T10:01:14;7.47;;;1.90;;
14268;SDS011;7218;51.480;7.006;2023-08-21T10:03:43;4.47;;;1.90;;
14268;SDS011;7218;51.480;7.006;2023-08-21T10:06:12;4.75;;;1.80;;
14268;SDS011;7218;51.480;7.006;2023-08-21T10:08:42;2.97;;;1.77;;
14268;SDS011;7218;51.480;7.006;2023-08-21T10:11:12;4.32;;;1.95;;
14268;SDS011;7218;51.480;7.006;2023-08-21T10:13:39;3.92;;;1.90;;
14268;SDS011;7218;51.480;7.006;2023-08-21T10:16:08;4.18;;;2.10;;
14268;SDS011;7218;51.480;7.006;2023-08-21T10:18:36;6.38;;;2.00;;
14268;SDS011;7218;51.480;7.006;2023-08-21T10:21:13;5.70;;;2.33;;
14268;SDS011;7218;51.480;7.006;2023-08-21T10:23:41;5.13;;;2.00;;
14268;SDS011;7218;51.480;7.006;2023-08-21T10:26:09;4.88;;;2.22;;
14268;SDS011;7218;51.480;7.006;2023-08-21T10:28:49;5.30;;;2.17;;
14268;SDS011;7218;51.480;7.006;2023-08-21T10:31:28;4.45;;;1.90;;
14268;SDS011;7218;51.480;7.006;2023-08-21T10:33:55;4.90;;;1.90;;
14268;SDS011;7218;51.480;7.006;2023-08-21T10:39:29;4.30;;;2.30;;
14268;SDS011;7218;51.480;7.006;2023-08-21T10:42:00;4.18;;;2.03;;
14268;SDS011;7218;51.480;7.006;2023-08-21T10:44:46;5.88;;;2.15;;
14268;SDS011;7218;51.480;7.006;2023-08-21T10:47:18;5.38;;;1.70;;
14268;SDS011;7218;51.480;7.006;2023-08-21T10:49:47;3.45;;;2.00;;
14268;SDS011;7218;51.480;7.006;2023-08-21T10:52:17;4.75;;;2.05;;
14268;SDS011;7218;51.480;7.006;2023-08-21T10:54:47;4.97;;;2.15;;
14268;SDS011;7218;51.480;7.006;2023-08-21T10:57:15;4.80;;;1.80;;
14268;SDS011;7218;51.480;7.006;2023-08-21T11:02:30;4.45;;;2.58;;
14268;SDS011;7218;51.480;7.006;2023-08-21T11:04:58;4.30;;;1.90;;
14268;SDS011;7218;51.480;7.006;2023-08-21T11:07:25;5.82;;;1.90;;
14268;SDS011;7218;51.480;7.006;2023-08-21T11:09:52;5.70;;;1.90;;
14268;SDS011;7218;51.480;7.006;2023-08-21T11:12:19;5.68;;;1.92;;
14268;SDS011;7218;51.480;7.006;2023-08-21T11:14:47;5.05;;;2.10;;
14268;SDS011;7218;51.480;7.006;2023-08-21T11:17:14;5.47;;;2.00;;
14268;SDS011;7218;51.480;7.006;2023-08-21T11:19:42;5.70;;;1.90;;
14268;SDS011;7218;51.480;7.006;2023-08-21T11:22:09;5.18;;;2.20;;
14268;SDS011;7218;51.480;7.006;2023-08-21T11:24:41;5.50;;;2.22;;
14268;SDS011;7218;51.480;7.006;2023-08-21T11:27:10;4.07;;;2.10;;
14268;SDS011;7218;51.480;7.006;2023-08-21T11:29:37;10.88;;;2.53;;
14268;SDS011;7218;51.480;7.006;2023-08-21T11:32:12;5.47;;;2.10;;
14268;SDS011;7218;51.480;7.006;2023-08-21T11:34:41;4.95;;;1.80;;
14268;SDS011;7218;51.480;7.006;2023-08-21T11:37:09;3.40;;;1.70;;
14268;SDS011;7218;51.480;7.006;2023-08-21T11:39:42;3.30;;;1.70;;
14268;SDS011;7218;51.480;7.006;2023-08-21T11:42:10;4.70;;;2.00;;
14268;SDS011;7218;51.480;7.006;2023-08-21T11:44:42;4.82;;;2.05;;
14268;SDS011;7218;51.480;7.006;2023-08-21T11:47:10;4.18;;;1.65;;
14268;SDS011;7218;51.480;7.006;2023-08-21T11:49:37;3.70;;;2.03;;
14268;SDS011;7218;51.480;7.006;2023-08-21T11:52:07;3.38;;;1.85;;
14268;SDS011;7218;51.480;7.006;2023-08-21T11:54:35;4.80;;;1.90;;
14268;SDS011;7218;51.480;7.006;2023-08-21T11:57:05;3.80;;;1.70;;
14268;SDS011;7218;51.480;7.006;2023-08-21T11:59:33;4.03;;;1.83;;
14268;SDS011;7218;51.480;7.006;2023-08-21T12:02:00;8.85;;;2.10;;
14268;SDS011;7218;51.480;7.006;2023-08-21T12:04:27;5.40;;;1.88;;
14268;SDS011;7218;51.480;7.006;2023-08-21T12:06:53;4.65;;;2.13;;
14268;SDS011;7218;51.480;7.006;2023-08-21T12:09:21;6.00;;;2.00;;
14268;SDS011;7218;51.480;7.006;2023-08-21T12:11:48;2.88;;;1.75;;
14268;SDS011;7218;51.480;7.006;2023-08-21T12:14:14;3.65;;;1.73;;
14268;SDS011;7218;51.480;7.006;2023-08-21T12:16:42;3.67;;;2.10;;
14268;SDS011;7218;51.480;7.006;2023-08-21T12:19:08;4.82;;;2.13;;
14268;SDS011;7218;51.480;7.006;2023-08-21T12:21:36;4.05;;;1.90;;
14268;SDS011;7218;51.480;7.006;2023-08-21T12:24:04;5.40;;;1.88;;
14268;SDS011;7218;51.480;7.006;2023-08-21T12:26:32;5.82;;;1.70;;
14268;SDS011;7218;51.480;7.006;2023-08-21T12:28:59;3.95;;;1.90;;
14268;SDS011;7218;51.480;7.006;2023-08-21T12:31:27;4.60;;;1.92;;
14268;SDS011;7218;51.480;7.006;2023-08-21T12:33:54;4.93;;;1.70;;
14268;SDS011;7218;51.480;7.006;2023-08-21T12:36:20;3.83;;;2.00;;
14268;SDS011;7218;51.480;7.006;2023-08-21T12:38:47;4.50;;;1.77;;
14268;SDS011;7218;51.480;7.006;2023-08-21T12:41:14;5.80;;;1.83;;
14268;SDS011;7218;51.480;7.006;2023-08-21T12:43:41;6.95;;;1.95;;
14268;SDS011;7218;51.480;7.006;2023-08-21T12:46:08;3.92;;;1.70;;
14268;SDS011;7218;51.480;7.006;2023-08-21T12:48:35;4.38;;;1.90;;
14268;SDS011;7218;51.480;7.006;2023-08-21T12:51:01;4.68;;;1.83;;
14268;SDS011;7218;51.480;7.006;2023-08-21T12:53:29;3.88;;;1.75;;
14268;SDS011;7218;51.480;7.006;2023-08-21T12:55:56;3.22;;;1.70;;
14268;SDS011;7218;51.480;7.006;2023-08-21T12:58:23;4.93;;;2.20;;
14268;SDS011;7218;51.480;7.006;2023-08-21T13:00:50;4.97;;;1.90;;
14268;SDS011;7218;51.480;7.006;2023-08-21T13:03:17;3.10;;;1.90;;
14268;SDS011;7218;51.480;7.006;2023-08-21T13:05:43;3.90;;;1.77;;
14268;SDS011;7218;51.480;7.006;2023-08-21T13:08:10;2.75;;;1.80;;
14268;SDS011;7218;51.480;7.006;2023-08-21T13:10:36;3.85;;;1.90;;
14268;SDS011;7218;51.480;7.006;2023-08-21T13:13:03;3.95;;;1.63;;
14268;SDS011;7218;51.480;7.006;2023-08-21T13:15:30;3.33;;;1.90;;
14268;SDS011;7218;51.480;7.006;2023-08-21T13:17:58;4.20;;;2.10;;
14268;SDS011;7218;51.480;7.006;2023-08-21T13:20:24;3.45;;;1.95;;
14268;SDS011;7218;51.480;7.006;2023-08-21T13:22:51;4.07;;;2.00;;
14268;SDS011;7218;51.480;7.006;2023-08-21T13:25:18;4.10;;;1.92;;
14268;SDS011;7218;51.480;7.006;2023-08-21T13:27:46;5.10;;;2.28;;
14268;SDS011;7218;51.480;7.006;2023-08-21T13:30:13;4.50;;;1.80;;
14268;SDS011;7218;51.480;7.006;2023-08-21T13:32:39;4.32;;;2.17;;
14268;SDS011;7218;51.480;7.006;2023-08-21T13:35:08;5.30;;;2.08;;
14268;SDS011;7218;51.480;7.006;2023-08-21T13:37:35;3.65;;;1.70;;
14268;SDS011;7218;51.480;7.006;2023-08-21T13:40:03;4.22;;;2.00;;
14268;SDS011;7218;51.480;7.006;2023-08-21T13:42:35;5.03;;;2.10;;
14268;SDS011;7218;51.480;7.006;2023-08-21T13:45:06;4.32;;;1.80;;
14268;SDS011;7218;51.480;7.006;2023-08-21T13:47:33;5.85;;;1.80;;
14268;SDS011;7218;51.480;7.006;2023-08-21T13:50:00;4.28;;;1.80;;
14268;SDS011;7218;51.480;7.006;2023-08-21T13:52:28;3.17;;;1.80;;
14268;SDS011;7218;51.480;7.006;2023-08-21T13:54:54;4.00;;;1.90;;
14268;SDS011;7218;51.480;7.006;2023-08-21T13:57:21;8.25;;;2.10;;
14268;SDS011;7218;51.480;7.006;2023-08-21T13:59:47;3.60;;;1.90;;
14268;SDS011;7218;51.480;7.006;2023-08-21T14:02:14;6.07;;;1.98;;
14268;SDS011;7218;51.480;7.006;2023-08-21T14:04:40;4.78;;;2.10;;
14268;SDS011;7218;51.480;7.006;2023-08-21T14:07:07;4.20;;;2.17;;
14268;SDS011;7218;51.480;7.006;2023-08-21T14:09:34;3.03;;;2.10;;
14268;SDS011;7218;51.480;7.006;2023-08-21T14:12:01;4.82;;;2.10;;
14268;SDS011;7218;51.480;7.006;2023-08-21T14:14:28;3.63;;;1.98;;
14268;SDS011;7218;51.480;7.006;2023-08-21T14:16:54;5.60;;;2.22;;
14268;SDS011;7218;51.480;7.006;2023-08-21T14:19:21;8.35;;;2.28;;
14268;SDS011;7218;51.480;7.006;2023-08-21T14:21:47;6.05;;;2.28;;
14268;SDS011;7218;51.480;7.006;2023-08-21T14:24:14;6.18;;;1.85;;
14268;SDS011;7218;51.480;7.006;2023-08-21T14:26:42;6.97;;;1.98;;
14268;SDS011;7218;51.480;7.006;2023-08-21T14:29:09;5.00;;;2.10;;
14268;SDS011;7218;51.480;7.006;2023-08-21T14:31:35;5.72;;;2.22;;
14268;SDS011;7218;51.480;7.006;2023-08-21T14:34:01;5.68;;;2.17;;
14268;SDS011;7218;51.480;7.006;2023-08-21T14:36:28;4.03;;;2.08;;
14268;SDS011;7218;51.480;7.006;2023-08-21T14:38:54;6.28;;;2.13;;
14268;SDS011;7218;51.480;7.006;2023-08-21T14:41:21;4.50;;;1.90;;
14268;SDS011;7218;51.480;7.006;2023-08-21T14:43:49;5.18;;;1.92;;
14268;SDS011;7218;51.480;7.006;2023-08-21T14:46:16;5.05;;;1.98;;
14268;SDS011;7218;51.480;7.006;2023-08-21T14:48:42;4.38;;;1.88;;
14268;SDS011;7218;51.480;7.006;2023-08-21T14:51:08;4.07;;;2.00;;
14268;SDS011;7218;51.480;7.006;2023-08-21T14:53:35;5.70;;;2.10;;
14268;SDS011;7218;51.480;7.006;2023-08-21T14:56:01;3.30;;;2.10;;
14268;SDS011;7218;51.480;7.006;2023-08-21T14:58:28;5.50;;;2.05;;
14268;SDS011;7218;51.480;7.006;2023-08-21T15:00:56;4.50;;;1.88;;
14268;SDS011;7218;51.480;7.006;2023-08-21T15:03:23;4.72;;;2.30;;
14268;SDS011;7218;51.480;7.006;2023-08-21T15:05:49;5.53;;;2.30;;
14268;SDS011;7218;51.480;7.006;2023-08-21T15:08:16;6.05;;;2.20;;